createdAt,value
2022-10-13T00:03:55.443Z,21.1
2022-10-13T00:08:55.791Z,21.5
2022-10-13T00:13:56.141Z,20.7
2022-10-13T00:18:56.658Z,20.1
2022-10-13T00:23:57.126Z,20.6
2022-10-13T00:28:57.901Z,20.5
2022-10-13T00:33:58.353Z,20.8
2022-10-13T00:38:58.676Z,20.5
2022-10-13T00:43:59.017Z,20.5
2022-10-13T00:48:59.902Z,19.9
2022-10-13T00:54:00.270Z,21.4
2022-10-13T00:59:01.316Z,20.8
2022-10-13T01:04:01.930Z,20.8
2022-10-13T01:09:02.379Z,21
2022-10-13T01:14:02.693Z,22
2022-10-13T01:19:03.153Z,22.2
2022-10-13T01:24:03.579Z,21.9
2022-10-13T01:29:03.906Z,20.5
2022-10-13T01:34:04.504Z,20.3
2022-10-13T01:39:04.935Z,21.8
2022-10-13T01:44:05.315Z,21.8
2022-10-13T01:49:06.115Z,23.7
2022-10-13T01:54:06.488Z,22.7
2022-10-13T01:59:06.824Z,23.3
2022-10-13T02:04:07.420Z,23.2
2022-10-13T02:09:07.734Z,24.2
2022-10-13T02:14:08.103Z,24.4
2022-10-13T02:19:08.628Z,24.5
2022-10-13T02:24:09.081Z,25.4
2022-10-13T02:29:09.438Z,25.4
2022-10-13T02:34:10.158Z,25.1
2022-10-13T02:39:10.738Z,25.6
2022-10-13T02:44:11.106Z,23.6
2022-10-13T02:49:12.209Z,24.2
2022-10-13T02:54:12.652Z,25.8
2022-10-13T02:59:13.148Z,23.9
2022-10-13T03:04:13.676Z,23.5
2022-10-13T03:09:14.076Z,23.9
2022-10-13T03:14:14.566Z,24
2022-10-13T03:19:15.206Z,23.6
2022-10-13T03:24:15.629Z,23.7
2022-10-13T03:29:16.101Z,24.7
2022-10-13T03:34:16.661Z,23
2022-10-13T03:39:17.086Z,23.4
2022-10-13T03:44:17.486Z,23.5
2022-10-13T03:49:18.218Z,22.5
2022-10-13T03:54:18.589Z,22.9
2022-10-13T03:59:18.969Z,22.5
2022-10-13T04:04:19.318Z,27.4
2022-10-13T04:09:19.749Z,23.6
2022-10-13T04:14:20.199Z,23.6
2022-10-13T04:19:20.640Z,21.3
2022-10-13T04:24:22.149Z,22.6
2022-10-13T04:29:22.725Z,21.5
2022-10-13T04:34:23.282Z,21.3
2022-10-13T04:39:23.615Z,19.7
2022-10-13T04:44:23.917Z,26.6
2022-10-13T04:49:24.823Z,21.9
2022-10-13T04:54:25.272Z,19.1
2022-10-13T04:59:25.692Z,20
2022-10-13T05:04:26.263Z,21.8
2022-10-13T05:09:26.716Z,20.6
2022-10-13T05:14:27.044Z,21
2022-10-13T05:19:27.505Z,23.1
2022-10-13T05:24:27.886Z,23
2022-10-13T05:29:28.552Z,38.9
2022-10-13T05:34:29.123Z,22.3
2022-10-13T05:39:29.516Z,21.7
2022-10-13T05:44:29.897Z,53.2
2022-10-13T05:49:30.691Z,20.5
2022-10-13T05:54:31.644Z,18.9
2022-10-13T05:59:31.950Z,17.2
2022-10-13T06:04:32.548Z,15.8
2022-10-13T06:09:32.901Z,15.1
2022-10-13T06:14:33.254Z,34.9
2022-10-13T06:19:33.920Z,14.5
2022-10-13T06:24:34.210Z,13
2022-10-13T06:29:34.525Z,13
2022-10-13T06:34:34.953Z,12.3
2022-10-13T06:39:35.357Z,11.5
2022-10-13T06:44:35.710Z,10.9
2022-10-13T06:49:36.332Z,29.1
2022-10-13T06:54:36.752Z,9.5
2022-10-13T06:59:37.231Z,9.8
2022-10-13T07:04:37.573Z,9.8
2022-10-13T07:09:37.938Z,8.9
2022-10-13T07:14:43.000Z,8.1
2022-10-13T07:19:44.590Z,7.8
2022-10-13T07:24:44.912Z,7.2
2022-10-13T07:29:45.296Z,6.6
2022-10-13T07:34:45.816Z,6.7
2022-10-13T07:39:46.168Z,6.8
2022-10-13T07:44:46.515Z,6.4
2022-10-13T07:49:47.408Z,6
2022-10-13T07:54:47.778Z,5.9
2022-10-13T07:59:48.153Z,5.4
2022-10-13T08:04:48.699Z,4.7
2022-10-13T08:09:49.247Z,4.5
2022-10-13T08:19:50.262Z,4.6
2022-10-13T08:24:50.634Z,4.6
2022-10-13T08:29:51.108Z,4.6
2022-10-13T08:34:51.677Z,4.2
2022-10-13T08:39:52.041Z,4.9
2022-10-13T08:45:41.607Z,4.4
2022-10-13T08:50:02.377Z,4.5
2022-10-13T08:55:03.004Z,3.8
2022-10-13T09:00:03.434Z,3.8
2022-10-13T09:05:03.774Z,4.3
2022-10-13T09:10:04.534Z,3.9
2022-10-13T09:15:05.133Z,3.8
2022-10-13T09:20:05.555Z,3.8
2022-10-13T09:25:05.996Z,4.2
2022-10-13T09:30:06.374Z,4.1
2022-10-13T09:35:25.357Z,3.6
2022-10-13T09:40:10.180Z,3.7
2022-10-13T09:50:23.477Z,3.9
2022-10-13T09:55:25.748Z,4.2
2022-10-13T10:00:21.277Z,4.3
2022-10-13T10:10:26.786Z,4.1
2022-10-13T10:15:28.885Z,4.4
2022-10-13T10:20:29.338Z,4.5
2022-10-13T10:25:29.723Z,4.2
2022-10-13T10:30:30.196Z,4.6
2022-10-13T10:35:30.778Z,4.1
2022-10-13T10:40:31.271Z,4.9
2022-10-13T10:45:31.626Z,4.7
2022-10-13T10:50:32.058Z,5
2022-10-13T10:55:32.469Z,4.4
2022-10-13T11:00:32.889Z,4.8
2022-10-13T11:05:33.380Z,4.9
2022-10-13T11:10:33.752Z,4.9
2022-10-13T11:15:34.226Z,4.9
2022-10-13T11:20:34.773Z,4.7
2022-10-13T11:25:35.111Z,5.1
2022-10-13T11:30:35.487Z,5.2
2022-10-13T11:35:35.998Z,4.8
2022-10-13T11:40:36.404Z,4.9
2022-10-13T11:45:36.781Z,4.6
2022-10-13T11:50:37.261Z,5.3
2022-10-13T11:55:39.167Z,5.6
2022-10-13T12:00:39.567Z,5.5
2022-10-13T12:05:40.293Z,5
2022-10-13T12:10:40.731Z,4.7
2022-10-13T12:15:41.128Z,5.4
2022-10-13T12:20:41.687Z,5.6
2022-10-13T12:25:42.152Z,5.1
2022-10-13T12:30:42.554Z,5.5
2022-10-13T12:35:43.166Z,5.4
2022-10-13T12:40:43.630Z,5.2
2022-10-13T12:45:44.029Z,4.8
2022-10-13T12:50:44.577Z,5.1
2022-10-13T12:55:45.221Z,5.1
2022-10-13T13:00:45.690Z,4.7
2022-10-13T13:05:53.556Z,4.7
2022-10-13T13:10:55.569Z,4.9
2022-10-13T13:15:56.083Z,5.2
2022-10-13T13:20:56.520Z,5.4
2022-10-13T13:25:57.944Z,5.4
2022-10-13T13:30:58.296Z,5.3
2022-10-13T13:35:58.889Z,5.9
2022-10-13T13:41:04.809Z,5.5
2022-10-13T13:46:05.198Z,5.6
2022-10-13T13:51:05.884Z,5.9
2022-10-13T13:56:06.536Z,5.9
2022-10-13T14:01:06.937Z,6.2
2022-10-13T14:06:07.397Z,5.9
2022-10-13T14:11:07.754Z,6.1
2022-10-13T14:16:08.096Z,5.8
2022-10-13T14:21:08.579Z,6.1
2022-10-13T14:26:09.042Z,6.1
2022-10-13T14:31:09.474Z,5.6
2022-10-13T14:36:10.509Z,5.6
2022-10-13T14:41:10.963Z,6.1
2022-10-13T14:46:11.411Z,5.9
2022-10-13T14:51:11.973Z,5.7
2022-10-13T14:56:12.448Z,5.9
2022-10-13T15:01:12.832Z,5.7
2022-10-13T15:06:13.504Z,6.4
2022-10-13T15:11:13.882Z,5.9
2022-10-13T15:16:14.235Z,6.3
2022-10-13T15:21:14.744Z,6.2
2022-10-13T15:26:15.142Z,6.1
2022-10-13T15:31:15.544Z,6.1
2022-10-13T15:36:16.119Z,6.5
2022-10-13T15:41:16.468Z,6.1
2022-10-13T15:46:16.839Z,6.4
2022-10-13T15:51:17.370Z,6.7
2022-10-13T15:56:17.943Z,6.5
2022-10-13T16:01:18.458Z,6.6
2022-10-13T16:06:19.098Z,10.1
2022-10-13T16:11:19.440Z,18.8
2022-10-13T16:16:19.797Z,12
2022-10-13T16:21:20.392Z,9.2
2022-10-13T16:26:23.206Z,9.2
2022-10-13T16:31:38.385Z,9.9
2022-10-13T16:36:29.054Z,10.5
2022-10-13T16:41:29.461Z,13.2
2022-10-13T16:46:29.792Z,16.7
2022-10-13T16:51:30.141Z,15.2
2022-10-13T16:56:30.685Z,20.2
2022-10-13T17:01:31.324Z,25.1
2022-10-13T17:06:32.159Z,23.3
2022-10-13T17:11:32.585Z,27.9
2022-10-13T17:16:33.011Z,31.2
2022-10-13T17:21:33.537Z,27.4
2022-10-13T17:26:33.993Z,35.6
2022-10-13T17:31:34.334Z,43.7
2022-10-13T17:36:35.362Z,40.1
2022-10-13T17:41:35.789Z,34.7
2022-10-13T17:46:39.534Z,31.4
2022-10-13T17:51:40.087Z,28.9
2022-10-13T17:56:40.720Z,26.5
2022-10-13T18:01:41.267Z,25
2022-10-13T18:06:41.702Z,25.7
2022-10-13T18:11:50.521Z,28.1
2022-10-13T18:16:51.832Z,30.4
2022-10-13T18:21:53.708Z,29.3
2022-10-13T18:26:54.096Z,34.2
2022-10-13T18:31:54.521Z,34
2022-10-13T18:36:54.896Z,34.4
2022-10-13T18:41:55.245Z,34
2022-10-13T18:46:55.652Z,32.8
2022-10-13T18:51:56.007Z,33
2022-10-13T18:56:56.664Z,33.5
2022-10-13T19:01:57.030Z,34.1
2022-10-13T19:06:57.588Z,31.2
2022-10-13T19:11:58.501Z,31
2022-10-13T19:17:02.834Z,29.9
2022-10-13T19:22:03.464Z,41.6
2022-10-13T19:27:03.801Z,39.9
2022-10-13T19:32:04.145Z,34.4
2022-10-13T19:37:04.720Z,34.2
2022-10-13T19:42:05.049Z,31.6
2022-10-13T19:47:05.526Z,26.7
2022-10-13T19:52:06.231Z,24.5
2022-10-13T19:57:06.792Z,25.3
2022-10-13T20:02:07.157Z,24.6
2022-10-13T20:07:07.789Z,24.9
2022-10-13T20:12:08.169Z,25.3
2022-10-13T20:17:08.512Z,26.5
2022-10-13T20:22:09.019Z,26.9
2022-10-13T20:27:09.412Z,25.4
2022-10-13T20:32:09.781Z,39
2022-10-13T20:37:10.362Z,23.8
2022-10-13T20:42:10.743Z,23.7
2022-10-13T20:47:11.168Z,24.4
2022-10-13T20:52:11.641Z,23.5
2022-10-13T20:57:12.061Z,22.1
2022-10-13T21:02:12.412Z,21.6
2022-10-13T21:07:13.022Z,22.1
2022-10-13T21:12:13.426Z,21.7
2022-10-13T21:17:13.855Z,20.9
2022-10-13T21:22:14.524Z,21.3
2022-10-13T21:27:14.854Z,21.1
2022-10-13T21:32:15.212Z,22.5
2022-10-13T21:37:15.796Z,21.8
2022-10-13T21:42:16.267Z,23.3
2022-10-13T21:47:16.632Z,22.5
2022-10-13T21:52:17.054Z,22.9
2022-10-13T21:57:17.466Z,22.2
2022-10-13T22:02:17.854Z,21.2
2022-10-13T22:07:18.385Z,21.3
2022-10-13T22:12:18.834Z,21.1
2022-10-13T22:17:19.812Z,21.4
2022-10-13T22:22:20.643Z,22.6
2022-10-13T22:27:21.714Z,22.4
2022-10-13T22:32:22.255Z,21.5
2022-10-13T22:37:24.503Z,23
2022-10-13T22:42:24.942Z,22.8
2022-10-13T22:47:25.473Z,22
2022-10-13T22:52:26.008Z,21.1
2022-10-13T22:57:26.780Z,22.2
2022-10-13T23:02:27.158Z,21.4
2022-10-13T23:07:27.492Z,21.2
2022-10-13T23:12:27.810Z,22.3
2022-10-13T23:17:28.213Z,21.2
2022-10-13T23:22:28.825Z,22
2022-10-13T23:27:29.198Z,21.4
2022-10-13T23:32:29.566Z,21.3
2022-10-13T23:37:30.253Z,21.5
2022-10-13T23:42:30.749Z,22.2
2022-10-13T23:47:31.321Z,22.2
2022-10-13T23:52:31.819Z,21.4
2022-10-13T23:57:32.203Z,22.7
